KFYM/FYM METAR and TAF weather

Enter ICAO airport designator
Station Type Date Time Source
KFYM METAR 2020/11/25 21:55 UTC NOAA

KFYM 252155Z AUTO 21011KT 10SM CLR 17/14 A2993 RMK A01


Station Type Date Time Source
KFYM Decoded METAR 2020/11/25 21:55 UTC NOAA

Station name not available
Nov 25, 2020 - 04:55 PM EST / 2020.11.25 2155 UTC
Wind: from the SSW (210 degrees) at 13 MPH (11 KT):0
Visibility: 10 mile(s):0
Sky conditions: clear
Temperature: 62 F (17 C)
Dew Point: 57 F (14 C)
Relative Humidity: 82%
Pressure (altimeter): 29.93 in. Hg (1013 hPa)
ob: KFYM 252155Z AUTO 21011KT 10SM CLR 17/14 A2993 RMK A01
cycle: 22

Station Type Date Time Source
KFYM TAF 2009/08/31 19:45 UTC NOAA

METAR KFYM 311945Z AUTO 01006KT 10SM CLR 26/11 A3009
RMK AO1 T02550111 $

Example: see airport list